Latest Weather Observations for Casino

IDN60801

Issued at 8:04 pm EST Tuesday 28 July 2015 (issued every 30 minutes, with the page automatically refreshed every 10 minutes)

About weather observations | Map of weather stations | Latest weather observations for NSW | Other Formats
Station Details ID: 058208 Name: CASINO AIRPORT AWS Lat: -28.88 Lon: 153.06 Height: 20.9 m
Data from the previous 72 hours. | See also: Recent months at Casino
Date/Time
EST
Temp
°C
App
Temp
°C
Dew
Point
Rel
Hum
%
Delta-T
°C
Wind Press
QNH
hPa
Press
MSL
hPa
Rain
since 9 am
mm
Dir
 
Spd
km/h
Gust
km/h
Spd
kts
Gust
kts
28/08:00pm 5.3 3.3 2.3 81 1.2 SW 2 6 1 3 1031.7 1031.7 0.0
28/07:30pm 5.9 4.3 2.4 78 1.4 CALM 0 0 0 0 1031.5 1031.5 0.0
28/07:00pm 7.6 6.0 2.5 70 2.1 CALM 0 0 0 0 1031.1 1031.1 0.0
28/06:30pm 6.6 4.4 0.9 67 2.2 SSE 2 15 1 8 1030.7 1030.7 0.0
28/06:00pm 9.4 7.1 2.5 62 2.9 SSE 4 6 2 3 1030.4 1030.4 0.0
28/05:30pm 10.4 7.5 1.5 54 3.7 SSE 6 6 3 3 1030.2 1030.2 0.0
28/05:00pm 13.1 10.0 1.5 45 4.9 SE 7 9 4 5 1030.0 1030.0 0.0
28/04:30pm 15.9 12.3 0.5 35 6.6 SE 9 15 5 8 1029.8 1029.8 0.0
28/04:00pm 16.9 13.6 0.1 32 7.2 SSE 7 11 4 6 1029.6 1029.6 0.0
28/03:30pm 17.3 13.2 0.0 31 7.5 S 11 17 6 9 1029.6 1029.6 0.0
28/03:00pm 17.6 13.6 0.7 32 7.4 SSE 11 15 6 8 1029.4 1029.4 0.0
28/02:30pm 18.2 15.2 1.7 33 7.4 SE 7 13 4 7 1029.5 1029.5 0.0
28/02:00pm 17.1 13.4 -0.1 31 7.3 SSW 9 19 5 10 1029.7 1029.7 0.0
28/01:30pm 17.5 13.5 0.6 32 7.4 SSW 11 20 6 11 1029.8 1029.8 0.0
28/01:00pm 16.7 12.3 0.4 33 7.0 SSW 13 20 7 11 1030.1 1030.1 0.0
28/12:30pm 17.6 13.8 2.0 35 7.0 SE 11 19 6 10 1030.4 1030.4 0.0
28/12:00pm 16.7 12.8 1.2 35 6.8 S 11 19 6 10 1030.9 1030.9 0.0
28/11:30am 16.1 11.8 1.0 36 6.6 S 13 20 7 11 1031.4 1031.4 0.0
28/11:00am 16.0 12.3 2.1 39 6.1 S 11 17 6 9 1031.8 1031.8 0.0
28/10:30am 15.0 10.7 1.2 39 6.0 SSW 13 17 7 9 1032.1 1032.1 0.0
28/10:00am 14.3 10.5 1.9 43 5.4 SW 11 15 6 8 1032.3 1032.3 0.0
28/09:30am 12.7 9.7 3.9 55 4.0 NW 9 11 5 6 1032.2 1032.2 0.0
28/09:00am 11.6 9.1 4.8 63 3.1 NW 7 13 4 7 1031.9 1031.9 0.0
28/08:30am 10.0 7.6 5.4 73 2.1 WNW 7 11 4 6 1031.5 1031.5 0.0
28/08:00am 8.1 5.8 5.9 86 1.0 WNW 7 9 4 5 1031.2 1031.2 0.0
28/07:30am 6.1 3.9 5.1 93 0.4 WNW 6 7 3 4 1031.1 1031.1 0.0
28/07:00am 4.0 1.2 3.0 93 0.4 WNW 7 7 4 4 1030.8 1030.8 0.0
28/06:30am 3.2 0.4 2.0 92 0.5 NW 6 6 3 3 1030.3 1030.3 0.0
28/06:00am 2.6 0.8 1.1 90 0.6 CALM 0 0 0 0 1030.1 1030.1 0.0
28/05:30am 3.9 1.2 2.6 91 0.5 S 6 7 3 4 1029.6 1029.6 0.0
28/05:00am 3.9 1.5 2.4 90 0.6 SSW 4 6 2 3 1029.2 1029.2 0.0
28/04:30am 4.1 1.8 2.5 89 0.6 SW 4 6 2 3 1028.9 1028.9 0.0
28/04:00am 4.9 3.0 2.8 86 0.8 WNW 2 6 1 3 1028.5 1028.5 0.0
28/03:30am 5.9 4.1 3.6 85 1.0 SW 2 6 1 3 1028.4 1028.4 0.0
28/03:00am 6.2 4.0 3.4 82 1.2 WNW 4 7 2 4 1028.2 1028.2 0.0
28/02:30am 7.9 6.7 4.5 79 1.5 CALM 0 0 0 0 1028.2 1028.2 0.0
28/02:00am 9.0 7.8 4.8 75 1.9 CALM 0 0 0 0 1028.3 1028.3 0.0
28/01:30am 9.8 7.9 5.0 72 2.2 NNW 4 9 2 5 1028.3 1028.3 0.0
28/01:00am 11.4 8.5 4.8 64 3.0 SW 9 13 5 7 1028.2 1028.2 0.0
28/12:30am 11.0 7.7 4.7 65 2.8 SSW 11 17 6 9 1027.8 1027.8 0.0
28/12:00am 11.5 8.8 5.6 67 2.7 SSE 9 15 5 8 1027.7 1027.7 0.0
 
Date/Time
EST
Temp
°C
App
Temp
°C
Dew
Point
Rel
Hum
%
Delta-T
°C
Wind Press
QNH
hPa
Press
MSL
hPa
Rain
since 9 am
mm
Dir
 
Spd
km/h
Gust
km/h
Spd
kts
Gust
kts
27/11:30pm 11.5 9.6 6.8 73 2.2 SSE 6 9 3 5 1027.8 1027.8 0.0
27/11:00pm 11.8 10.0 7.3 74 2.2 SSW 6 7 3 4 1027.7 1027.7 0.0
27/10:30pm 12.7 10.6 8.2 74 2.2 SSW 9 15 5 8 1027.6 1027.6 0.0
27/10:00pm 12.5 10.0 8.4 76 2.0 SW 11 17 6 9 1027.4 1027.4 0.0
27/09:30pm 12.5 9.8 8.8 78 1.9 SSW 13 15 7 8 1027.0 1027.0 0.0
27/09:00pm 10.6 8.7 8.9 89 0.8 SW 9 13 5 7 1026.9 1026.9 0.0
27/08:30pm 9.2 7.2 7.2 87 0.9 SW 7 9 4 5 1026.5 1026.5 0.0
27/08:00pm 9.4 7.6 7.0 85 1.1 SW 6 7 3 4 1026.1 1026.1 0.0
27/07:30pm 10.8 9.3 8.4 85 1.2 SW 6 7 3 4 1025.7 1025.7 0.0
27/07:00pm 11.2 10.0 7.9 80 1.6 SE 4 6 2 3 1024.9 1024.9 0.0
27/06:30pm 11.6 9.6 7.1 74 2.2 E 7 9 4 5 1024.5 1024.5 0.0
27/06:00pm 13.8 11.3 8.0 68 2.9 SE 11 15 6 8 1023.9 1023.9 0.0
27/05:30pm 14.3 11.2 7.4 63 3.4 E 13 17 7 9 1023.6 1023.6 0.0
27/05:00pm 15.8 12.7 5.4 50 4.9 SE 11 13 6 7 1023.0 1023.0 0.0
27/04:30pm 18.1 14.5 5.0 42 6.3 SE 13 17 7 9 1022.8 1022.8 0.0
27/04:00pm 19.6 16.5 5.6 40 6.9 ESE 11 15 6 8 1022.4 1022.4 0.0
27/03:30pm 19.7 16.3 5.7 40 6.9 E 13 17 7 9 1022.2 1022.2 0.0
27/03:00pm 20.4 17.2 5.2 37 7.4 ENE 11 17 6 9 1022.0 1022.0 0.0
27/02:30pm 20.7 17.4 6.6 40 7.1 E 13 19 7 10 1022.0 1022.0 0.0
27/02:00pm 21.1 18.5 5.9 37 7.6 NE 9 13 5 7 1022.1 1022.1 0.0
27/01:30pm 20.3 18.0 5.5 38 7.3 NE 7 11 4 6 1022.3 1022.3 0.0
27/01:00pm 20.1 18.0 5.7 39 7.1 SW 6 13 3 7 1022.5 1022.5 0.0
27/12:30pm 20.2 17.9 4.7 36 7.5 WNW 6 9 3 5 1023.0 1023.0 0.0
27/12:00pm 19.4 16.8 4.0 36 7.3 SW 7 13 4 7 1023.4 1023.4 0.0
27/11:30am 19.2 16.5 5.6 41 6.7 WSW 9 11 5 6 1023.9 1023.9 0.0
27/11:00am 18.9 15.8 5.7 42 6.4 WSW 11 15 6 8 1024.0 1024.0 0.0
27/10:30am 18.5 15.9 6.0 44 6.2 W 9 15 5 8 1024.1 1024.1 0.0
27/10:00am 18.6 15.7 8.3 51 5.3 WNW 13 20 7 11 1024.2 1024.2 0.0
27/09:30am 17.3 14.3 7.9 54 4.8 WNW 13 19 7 10 1024.3 1024.3 0.0
27/09:00am 15.8 12.9 8.1 60 3.9 NW 13 17 7 9 1024.3 1024.3 0.0
27/08:30am 14.5 12.2 7.5 63 3.5 NW 9 13 5 7 1024.2 1024.2 0.0
27/08:00am 13.4 10.7 7.4 67 2.9 NW 11 13 6 7 1023.8 1023.8 0.0
27/07:30am 11.9 9.7 7.8 76 2.0 NW 9 13 5 7 1023.6 1023.6 0.0
27/07:00am 10.0 7.2 7.1 82 1.4 WNW 11 13 6 7 1023.4 1023.4 0.0
27/06:30am 7.9 5.6 5.7 86 1.0 W 7 7 4 4 1023.1 1023.1 0.0
27/06:00am 8.8 6.7 6.8 87 0.9 WNW 7 9 4 5 1022.7 1022.7 0.0
27/05:30am 8.7 7.8 6.0 83 1.2 CALM 0 0 0 0 1022.2 1022.2 0.0
27/05:00am 9.3 7.1 5.3 76 1.8 WNW 6 9 3 5 1021.7 1021.7 0.0
27/04:30am 11.0 8.6 6.9 76 1.9 WNW 9 11 5 6 1021.6 1021.6 0.0
27/04:00am 11.1 8.7 6.8 75 2.0 NW 9 11 5 6 1021.7 1021.7 0.0
27/03:30am 12.1 9.9 6.4 68 2.7 WNW 7 9 4 5 1021.4 1021.4 0.0
27/03:00am 13.2 9.7 7.0 66 3.0 NW 15 19 8 10 1021.2 1021.2 0.0
27/02:30am 13.4 9.9 7.0 65 3.1 NW 15 19 8 10 1021.0 1021.0 0.0
27/02:00am 13.3 10.0 6.6 64 3.2 NW 13 17 7 9 1021.2 1021.2 0.0
27/01:30am 14.5 10.9 6.6 59 3.8 NNW 15 20 8 11 1021.2 1021.2 0.0
27/01:00am 15.1 10.2 6.9 58 4.0 NW 22 28 12 15 1020.8 1020.8 0.0
27/12:30am 14.9 10.5 7.5 61 3.7 NW 20 26 11 14 1020.7 1020.7 0.0
27/12:00am 14.6 10.5 8.5 67 3.1 NW 20 26 11 14 1020.9 1020.9 0.0
 
Date/Time
EST
Temp
°C
App
Temp
°C
Dew
Point
Rel
Hum
%
Delta-T
°C
Wind Press
QNH
hPa
Press
MSL
hPa
Rain
since 9 am
mm
Dir
 
Spd
km/h
Gust
km/h
Spd
kts
Gust
kts
26/11:30pm 14.7 11.1 9.9 73 2.5 NW 19 24 10 13 1020.9 1020.9 0.0
26/11:00pm 15.1 12.2 9.7 70 2.8 NW 15 19 8 10 1021.1 1021.1 0.0
26/10:30pm 15.0 12.3 8.9 67 3.1 NW 13 17 7 9 1020.9 1020.9 0.0
26/10:00pm 16.3 12.6 7.8 57 4.3 NW 17 20 9 11 1020.7 1020.7 0.0
26/09:30pm 17.5 14.1 7.8 53 4.9 WNW 15 26 8 14 1020.5 1020.5 0.0
26/09:00pm 16.4 14.5 9.1 62 3.8 WNW 9 15 5 8 1020.7 1020.7 0.0
26/08:30pm 16.8 14.5 10.4 66 3.4 WNW 13 17 7 9 1020.6 1020.6 0.0
26/08:00pm 18.2 16.1 11.3 64 3.7 WNW 13 20 7 11 1020.1 1020.1 0.0
26/07:30pm 18.1 16.9 11.7 66 3.5 W 9 13 5 7 1019.9 1019.9 0.0
26/07:00pm 16.9 16.1 11.8 72 2.8 W 7 9 4 5 1019.2 1019.2 0.0
26/06:30pm 18.4 17.8 12.2 67 3.4 WSW 7 9 4 5 1018.7 1018.7 0.0
26/06:00pm 17.9 17.0 11.2 65 3.6 NNW 7 9 4 5 1018.2 1018.2 0.0
26/05:30pm 19.8 19.4 12.3 62 4.2 WNW 6 9 3 5 1017.6 1017.6 0.0
26/05:00pm 21.3 21.1 13.0 59 4.7 W 6 7 3 4 1017.2 1017.2 0.0
26/04:30pm 22.1 20.7 13.5 58 5.0 NW 13 19 7 10 1017.0 1017.0 0.0
26/04:00pm 23.8 21.3 13.4 52 6.0 NW 19 24 10 13 1016.7 1016.7 0.0
26/03:30pm 24.3 21.6 13.5 51 6.3 WNW 20 28 11 15 1016.7 1016.7 0.0
26/03:00pm 23.6 23.0 15.6 61 4.8 N 13 17 7 9 1016.8 1016.8 0.0
26/02:30pm 23.6 23.6 15.1 59 5.1 NNW 9 13 5 7 1016.9 1016.9 0.0
26/02:00pm 22.5 22.6 14.4 60 4.8 NNW 7 11 4 6 1017.1 1017.1 0.0
26/01:30pm 22.6 21.2 13.4 56 5.3 NW 13 17 7 9 1017.1 1017.1 0.0
26/01:00pm 23.0 23.1 13.8 56 5.4 NW 6 11 3 6 1017.3 1017.3 0.0
26/12:30pm 21.8 21.5 13.2 58 4.9 WNW 7 9 4 5 1018.1 1018.1 0.0
26/12:00pm 21.0 20.3 13.2 61 4.5 NNW 9 13 5 7 1018.8 1018.8 0.0
26/11:30am 20.2 20.3 13.9 67 3.6 N 6 11 3 6 1019.5 1019.5 0.0
26/11:00am 18.6 19.5 12.8 69 3.2 CALM 0 2 0 1 1020.1 1020.1 0.0
26/10:30am 18.6 18.3 13.2 71 3.1 W 7 9 4 5 1020.6 1020.6 0.0
26/10:00am 18.5 18.1 13.1 71 3.0 WNW 7 11 4 6 1020.7 1020.7 0.0
26/09:30am 18.2 18.1 13.3 73 2.8 NNW 6 9 3 5 1020.9 1020.9 0.0
26/09:00am 16.5 16.2 12.8 79 2.0 WNW 6 9 3 5 1021.3 1021.3 0.0
26/08:30am 15.7 15.2 12.6 82 1.7 WNW 7 11 4 6 1021.1 1021.1 0.0
26/08:00am 14.8 15.0 11.9 83 1.6 NW 2 6 1 3 1020.5 1020.5 0.0
26/07:30am 14.3 13.5 11.8 85 1.3 WNW 7 9 4 5 1020.8 1020.8 0.0
26/07:00am 13.8 12.2 11.5 86 1.2 NW 11 13 6 7 1021.0 1021.0 0.0
26/06:30am 13.5 12.2 11.4 87 1.1 WNW 9 11 5 6 1020.8 1020.8 0.0
26/06:00am 13.3 12.0 11.2 87 1.1 NW 9 11 5 6 1020.6 1020.6 0.0
26/05:30am 13.4 12.1 11.3 87 1.1 WNW 9 11 5 6 1020.5 1020.5 0.0
26/05:00am 13.4 12.4 11.1 86 1.2 WNW 7 11 4 6 1020.0 1020.0 0.0
26/04:30am 13.7 12.4 11.2 85 1.3 WNW 9 11 5 6 1020.1 1020.1 0.0
26/04:00am 13.9 12.3 11.4 85 1.3 WNW 11 15 6 8 1020.7 1020.7 0.0
26/03:30am 13.7 12.8 11.2 85 1.3 W 7 9 4 5 1020.1 1020.1 0.0
26/03:00am 13.7 12.4 11.2 85 1.3 WNW 9 13 5 7 1020.3 1020.3 0.0
26/02:30am 13.6 12.7 11.3 86 1.2 NW 7 9 4 5 1020.9 1020.9 0.0
26/02:00am 13.6 12.3 11.3 86 1.2 NW 9 11 5 6 1020.9 1020.9 0.0
26/01:30am 13.8 12.5 11.3 85 1.3 WNW 9 11 5 6 1021.1 1021.1 0.0
26/01:00am 13.4 12.4 11.1 86 1.2 NW 7 9 4 5 1020.4 1020.4 0.0
26/12:30am 13.6 12.6 11.1 85 1.3 NW 7 9 4 5 1020.9 1020.9 0.0
26/12:00am 13.7 12.0 11.2 85 1.3 NW 11 13 6 7 1021.1 1021.1 0.0
 
Date/Time
EST
Temp
°C
App
Temp
°C
Dew
Point
Rel
Hum
%
Delta-T
°C
Wind Press
QNH
hPa
Press
MSL
hPa
Rain
since 9 am
mm
Dir
 
Spd
km/h
Gust
km/h
Spd
kts
Gust
kts
25/11:30pm 14.0 12.4 11.7 86 1.2 WNW 11 15 6 8 1021.6 1021.6 0.0
25/11:00pm 13.2 11.9 11.3 88 1.0 NW 9 11 5 6 1021.4 1021.4 0.0
25/10:30pm 12.6 11.4 10.3 86 1.2 WNW 7 9 4 5 1021.9 1021.9 0.0
25/10:00pm 13.2 11.8 10.9 86 1.2 WNW 9 11 5 6 1021.6 1021.6 0.0
25/09:30pm 12.9 11.5 10.8 87 1.1 WNW 9 11 5 6 1021.2 1021.2 0.0
25/09:00pm 12.4 11.1 9.8 84 1.3 W 7 9 4 5 1021.4 1021.4 0.0
25/08:30pm 14.5 13.9 11.6 83 1.6 NW 6 9 3 5 1021.3 1021.3 0.0

Other Formats:

Comma delimited format used in spreadsheet applications
http://www.bom.gov.au/fwo/IDN60801/IDN60801.94573.axf

JavaScript Object Notation format (JSON) in row-major order
http://www.bom.gov.au/fwo/IDN60801/IDN60801.94573.json